Time;durP1;ratioP1;P1;durP2;ratioP2;P2;SDS_P1;SDS_P2;PMS_P1;PMS_P2;Temp;Humidity;BMP_temperature;BMP_pressure;BME280_temperature;BME280_humidity;BME280_pressure;Samples;Min_cycle;Max_cycle;Signal;HPM_P1;HPM_P2
2022/01/15 00:00:02;;;;;;;1.20;0.70;;;16.90;49.90;;;;;;5094461;28;20101;-67
2022/01/15 00:02:28;;;;;;;2.60;1.10;;;16.90;49.90;;;;;;5095506;28;20062;-68
2022/01/15 00:04:54;;;;;;;0.98;0.68;;;16.90;49.90;;;;;;5095930;28;20044;-66
2022/01/15 00:07:19;;;;;;;1.33;0.80;;;16.90;49.90;;;;;;5095640;28;20027;-66
2022/01/15 00:09:49;;;;;;;1.20;0.70;;;16.80;49.90;;;;;;5095503;28;20086;-66
2022/01/15 00:12:18;;;;;;;2.17;0.95;;;16.90;49.90;;;;;;5094389;28;20054;-66
2022/01/15 00:14:44;;;;;;;1.25;0.70;;;16.80;49.90;;;;;;5095178;28;20040;-67
2022/01/15 00:20:05;;;;;;;1.70;0.90;;;16.80;49.90;;;;;;5093361;28;20089;-69
2022/01/15 00:22:31;;;;;;;1.48;0.80;;;16.80;50.00;;;;;;5093868;28;20119;-66
2022/01/15 00:24:56;;;;;;;0.95;0.60;;;16.80;50.00;;;;;;5095122;28;20123;-66
2022/01/15 00:27:22;;;;;;;1.35;0.90;;;16.80;50.00;;;;;;5093742;28;20056;-66
2022/01/15 00:29:48;;;;;;;1.15;0.63;;;16.80;50.10;;;;;;5094988;28;20068;-66
2022/01/15 00:32:13;;;;;;;0.90;0.60;;;16.80;50.10;;;;;;5094902;28;20047;-66
2022/01/15 00:34:39;;;;;;;0.98;0.45;;;16.80;50.10;;;;;;5093709;28;20024;-66
2022/01/15 00:37:05;;;;;;;1.27;0.47;;;16.80;50.10;;;;;;5095025;28;20032;-66
2022/01/15 00:39:30;;;;;;;1.00;0.60;;;16.80;50.10;;;;;;5093470;28;20591;-66
2022/01/15 00:41:56;;;;;;;1.25;0.60;;;16.70;50.10;;;;;;5094755;28;20442;-66
2022/01/15 00:44:22;;;;;;;1.10;0.50;;;16.70;50.10;;;;;;5093764;28;20047;-66
2022/01/15 00:46:47;;;;;;;1.27;0.70;;;16.70;50.10;;;;;;5093376;28;20097;-66
2022/01/15 00:49:13;;;;;;;1.08;0.80;;;16.70;50.10;;;;;;5093697;28;20043;-67
2022/01/15 00:51:39;;;;;;;1.15;0.70;;;16.70;50.10;;;;;;5092781;28;20359;-66
2022/01/15 00:54:05;;;;;;;2.08;0.65;;;16.70;50.10;;;;;;5093628;28;20367;-66
2022/01/15 00:56:31;;;;;;;1.00;0.50;;;16.70;50.10;;;;;;5093247;28;20048;-66
2022/01/15 00:59:00;;;;;;;1.30;0.88;;;16.70;50.10;;;;;;5093292;28;20051;-67
2022/01/15 01:01:27;;;;;;;1.10;0.70;;;16.70;50.20;;;;;;5093269;28;20107;-66
2022/01/15 01:03:52;;;;;;;1.10;0.68;;;16.70;50.20;;;;;;5093436;28;20114;-67
2022/01/15 01:06:18;;;;;;;0.90;0.60;;;16.70;50.20;;;;;;5093306;28;20127;-66
2022/01/15 01:08:44;;;;;;;0.77;0.45;;;16.70;50.20;;;;;;5094467;28;20111;-66
2022/01/15 01:11:12;;;;;;;1.33;0.60;;;16.70;50.20;;;;;;5093325;28;20032;-67
2022/01/15 01:20:02;;;;;;;1.15;0.50;;;16.70;50.20;;;;;;5094203;28;20028;-66
2022/01/15 01:22:52;;;;;;;1.27;0.88;;;16.60;50.20;;;;;;5074149;28;20041;-66
2022/01/15 01:24:44;;;;;;;1.63;0.60;;;16.60;50.30;;;;;;5088152;28;20036;-66
2022/01/15 01:27:18;;;;;;;1.75;0.80;;;16.60;50.30;;;;;;5092707;28;20036;-67
2022/01/15 01:30:06;;;;;;;1.25;0.70;;;16.60;50.30;;;;;;5092891;28;20043;-66
2022/01/15 01:32:43;;;;;;;1.00;0.55;;;16.60;50.30;;;;;;5092697;28;20444;-66
2022/01/15 01:35:14;;;;;;;1.85;0.50;;;16.60;50.30;;;;;;5093880;28;20387;-67
2022/01/15 01:37:45;;;;;;;1.20;0.30;;;16.60;50.40;;;;;;5092750;28;20048;-67
2022/01/15 01:40:23;;;;;;;1.10;0.60;;;16.60;50.40;;;;;;5109508;28;20043;-66
2022/01/15 01:43:26;;;;;;;0.90;0.60;;;16.60;50.30;;;;;;5092380;28;20119;-66
2022/01/15 01:45:35;;;;;;;1.40;0.43;;;16.50;50.30;;;;;;5093417;28;20047;-66
2022/01/15 01:48:00;;;;;;;1.20;0.63;;;16.50;50.40;;;;;;5092579;28;20506;-67
2022/01/15 01:50:29;;;;;;;0.65;0.30;;;16.50;50.40;;;;;;5092355;28;20040;-67
2022/01/15 01:52:57;;;;;;;1.40;0.40;;;16.50;50.40;;;;;;5092424;28;20032;-67
2022/01/15 01:55:25;;;;;;;1.33;0.68;;;16.50;50.50;;;;;;5093471;28;20071;-67
2022/01/15 01:57:53;;;;;;;0.85;0.40;;;16.40;50.50;;;;;;5093348;28;20032;-66
2022/01/15 02:00:20;;;;;;;0.98;0.55;;;16.50;50.50;;;;;;5093288;28;20127;-67
2022/01/15 02:02:47;;;;;;;1.27;0.77;;;16.50;50.50;;;;;;5091648;28;20077;-66
2022/01/15 02:05:17;;;;;;;1.17;0.40;;;16.50;50.60;;;;;;5091356;28;20071;-66
2022/01/15 02:07:43;;;;;;;0.80;0.40;;;16.40;50.50;;;;;;5092217;28;20035;-66
2022/01/15 02:10:15;;;;;;;0.88;0.47;;;16.40;50.50;;;;;;5093199;28;20446;-66
2022/01/15 02:12:41;;;;;;;0.93;0.57;;;16.40;50.50;;;;;;5108842;28;20040;-67
2022/01/15 02:17:47;;;;;;;0.93;0.40;;;16.40;50.60;;;;;;5130562;27;20379;-66
2022/01/15 02:23:44;;;;;;;1.08;0.45;;;16.40;50.60;;;;;;5130418;27;20374;-66
2022/01/15 02:25:57;;;;;;;1.10;0.50;;;16.40;50.60;;;;;;5128326;28;20055;-67
2022/01/15 02:28:30;;;;;;;0.73;0.40;;;16.30;50.50;;;;;;5130433;27;20367;-66
2022/01/15 02:30:59;;;;;;;0.75;0.45;;;16.40;50.70;;;;;;5129170;28;20420;-66
2022/01/15 02:33:25;;;;;;;1.73;0.40;;;16.30;50.60;;;;;;5129836;27;20027;-66
2022/01/15 02:35:52;;;;;;;0.85;0.40;;;16.30;50.70;;;;;;5128818;28;20539;-66
2022/01/15 02:38:18;;;;;;;1.13;0.40;;;16.30;50.70;;;;;;5128804;28;20092;-66
2022/01/15 02:40:44;;;;;;;1.30;0.40;;;16.30;50.60;;;;;;5128984;28;20031;-66
2022/01/15 02:43:15;;;;;;;1.35;0.47;;;16.30;50.70;;;;;;5128738;28;20118;-66
2022/01/15 02:45:44;;;;;;;0.70;0.40;;;16.30;50.70;;;;;;5128645;28;20031;-66
2022/01/15 02:48:13;;;;;;;0.77;0.40;;;16.30;50.70;;;;;;5128932;28;20035;-67
2022/01/15 02:50:39;;;;;;;0.75;0.30;;;16.30;50.70;;;;;;5128747;28;20063;-66
2022/01/15 02:53:06;;;;;;;0.57;0.40;;;16.30;50.70;;;;;;5129766;28;20058;-66
2022/01/15 02:55:32;;;;;;;1.15;0.70;;;16.30;50.80;;;;;;5129722;27;20035;-66
2022/01/15 02:57:57;;;;;;;0.68;0.28;;;16.30;50.80;;;;;;5128465;28;20027;-66
2022/01/15 03:00:25;;;;;;;1.02;0.30;;;16.20;50.80;;;;;;5129615;28;20084;-66
2022/01/15 03:02:51;;;;;;;0.50;0.30;;;16.20;50.80;;;;;;5129624;28;20474;-66
2022/01/15 03:05:17;;;;;;;0.50;0.30;;;16.20;50.80;;;;;;5129481;27;20055;-66
2022/01/15 03:07:45;;;;;;;0.65;0.30;;;16.30;50.90;;;;;;5127995;28;20035;-66
2022/01/15 03:10:11;;;;;;;0.65;0.20;;;16.20;50.80;;;;;;5128019;28;20513;-66
2022/01/15 03:12:37;;;;;;;0.90;0.50;;;16.20;50.80;;;;;;5127651;28;20043;-66
2022/01/15 03:15:05;;;;;;;0.57;0.20;;;16.20;50.90;;;;;;5127286;28;20039;-66
2022/01/15 03:17:31;;;;;;;1.00;0.30;;;16.20;50.90;;;;;;5129283;27;20161;-66
2022/01/15 03:20:02;;;;;;;0.55;0.30;;;16.20;50.90;;;;;;5128524;28;20088;-66
2022/01/15 03:22:28;;;;;;;0.75;0.20;;;16.20;51.00;;;;;;5127662;28;20111;-67
2022/01/15 03:24:54;;;;;;;0.70;0.20;;;16.20;51.00;;;;;;5128092;28;20169;-66
2022/01/15 03:27:23;;;;;;;0.50;0.30;;;16.10;50.90;;;;;;5127983;28;20038;-66
2022/01/15 03:29:50;;;;;;;0.40;0.20;;;16.10;50.90;;;;;;5127864;28;20039;-67
2022/01/15 03:32:16;;;;;;;0.73;0.30;;;16.10;51.00;;;;;;5126523;28;20035;-66
2022/01/15 03:34:42;;;;;;;0.90;0.32;;;16.10;51.00;;;;;;5113980;28;20409;-66
2022/01/15 03:37:08;;;;;;;0.93;0.30;;;16.10;50.90;;;;;;5113913;28;20050;-67
2022/01/15 03:39:35;;;;;;;0.60;0.22;;;16.10;50.90;;;;;;5114155;28;20543;-66
2022/01/15 03:42:02;;;;;;;0.50;0.20;;;16.10;50.90;;;;;;5115122;28;20482;-66
2022/01/15 03:44:28;;;;;;;0.40;0.20;;;16.10;50.90;;;;;;5113891;28;20495;-66
2022/01/15 03:46:56;;;;;;;1.00;0.30;;;16.00;50.90;;;;;;5115103;28;20035;-66
2022/01/15 03:49:22;;;;;;;0.30;0.10;;;16.10;51.00;;;;;;5114017;28;20034;-67
2022/01/15 03:51:48;;;;;;;0.80;0.30;;;16.10;51.00;;;;;;5115066;28;20374;-66
2022/01/15 03:54:13;;;;;;;0.60;0.30;;;16.10;51.00;;;;;;5113986;28;20455;-66
2022/01/15 03:56:39;;;;;;;0.40;0.28;;;16.10;51.00;;;;;;5114922;28;20521;-66
2022/01/15 03:59:04;;;;;;;0.93;0.20;;;16.00;51.00;;;;;;5114966;28;20062;-66
2022/01/15 04:01:30;;;;;;;0.40;0.20;;;16.00;51.00;;;;;;5113696;28;20035;-66
2022/01/15 04:03:56;;;;;;;0.70;0.20;;;16.00;51.10;;;;;;5114683;28;20035;-66
2022/01/15 04:06:21;;;;;;;0.50;0.20;;;16.00;51.10;;;;;;5114736;28;20027;-66
2022/01/15 04:08:50;;;;;;;0.73;0.20;;;16.00;51.10;;;;;;5113562;28;20040;-66
2022/01/15 04:11:15;;;;;;;1.08;0.20;;;16.00;51.20;;;;;;5113704;28;20044;-66
2022/01/15 04:13:41;;;;;;;0.50;0.20;;;16.00;51.10;;;;;;5113274;28;20505;-66
2022/01/15 04:16:06;;;;;;;0.45;0.25;;;16.00;51.10;;;;;;5113452;28;20031;-66
2022/01/15 04:18:41;;;;;;;0.30;0.10;;;16.00;51.10;;;;;;5113438;28;20043;-66
2022/01/15 04:21:11;;;;;;;0.32;0.20;;;16.00;51.10;;;;;;5113150;28;20063;-67
2022/01/15 04:23:37;;;;;;;0.50;0.20;;;15.90;51.10;;;;;;5113441;28;20424;-66
2022/01/15 04:26:04;;;;;;;0.50;0.20;;;15.90;51.20;;;;;;5113439;28;20040;-66
2022/01/15 04:28:32;;;;;;;0.60;0.10;;;15.90;51.10;;;;;;5112897;28;20502;-66
2022/01/15 04:31:04;;;;;;;0.63;0.20;;;15.90;51.20;;;;;;5114503;28;20376;-67
2022/01/15 04:33:33;;;;;;;0.88;0.20;;;15.90;51.20;;;;;;5114137;28;20049;-66
2022/01/15 04:36:00;;;;;;;0.50;0.20;;;15.90;51.20;;;;;;5114684;28;20047;-66
2022/01/15 04:38:26;;;;;;;0.80;0.20;;;15.90;51.20;;;;;;5114623;28;20123;-66
2022/01/15 04:40:52;;;;;;;0.57;0.20;;;15.90;51.20;;;;;;5112773;28;20047;-66
2022/01/15 04:43:18;;;;;;;0.40;0.20;;;15.90;51.20;;;;;;5112716;28;20035;-66
2022/01/15 04:45:46;;;;;;;0.55;0.13;;;15.90;51.20;;;;;;5112067;28;20035;-66
2022/01/15 04:48:15;;;;;;;0.47;0.20;;;15.80;51.20;;;;;;5112963;28;20050;-66
2022/01/15 04:50:41;;;;;;;0.40;0.20;;;15.80;51.20;;;;;;5114095;28;20035;-66
2022/01/15 04:53:08;;;;;;;0.43;0.13;;;15.80;51.20;;;;;;5114018;28;20024;-66
2022/01/15 04:55:35;;;;;;;0.38;0.10;;;15.80;51.20;;;;;;5112785;28;20059;-66
2022/01/15 04:58:01;;;;;;;0.90;0.30;;;15.80;51.20;;;;;;5112779;28;20467;-66
2022/01/15 05:00:27;;;;;;;0.45;0.20;;;15.80;51.20;;;;;;5112380;28;20111;-66
2022/01/15 05:02:52;;;;;;;0.75;0.15;;;15.80;51.30;;;;;;5112199;28;20131;-66
2022/01/15 05:05:18;;;;;;;1.10;0.20;;;15.80;51.30;;;;;;5112187;28;20031;-66
2022/01/15 05:07:44;;;;;;;0.30;0.10;;;15.80;51.40;;;;;;5112180;28;20030;-66
2022/01/15 05:10:13;;;;;;;0.60;0.17;;;15.80;51.40;;;;;;5113650;28;20039;-66
2022/01/15 05:12:42;;;;;;;0.35;0.10;;;15.80;51.40;;;;;;5112241;28;20118;-66
2022/01/15 05:15:09;;;;;;;0.35;0.20;;;15.70;51.40;;;;;;5113271;28;20084;-66
2022/01/15 05:17:35;;;;;;;0.30;0.10;;;15.70;51.40;;;;;;5112018;28;20517;-66
2022/01/15 05:20:01;;;;;;;0.40;0.10;;;15.70;51.40;;;;;;5112045;28;20035;-66
2022/01/15 05:22:26;;;;;;;0.50;0.20;;;15.70;51.50;;;;;;5111810;28;20050;-66
2022/01/15 05:24:52;;;;;;;0.40;0.10;;;15.70;51.50;;;;;;5113294;28;20114;-66
2022/01/15 05:27:18;;;;;;;0.40;0.17;;;15.70;51.50;;;;;;5113239;28;20031;-66
2022/01/15 05:29:45;;;;;;;0.30;0.10;;;15.60;51.50;;;;;;5112018;28;20031;-66
2022/01/15 05:32:10;;;;;;;0.40;0.10;;;15.60;51.50;;;;;;5113137;28;20046;-66
2022/01/15 05:34:36;;;;;;;0.40;0.10;;;15.60;51.50;;;;;;5111734;28;20467;-66
2022/01/15 05:37:02;;;;;;;0.63;0.20;;;15.60;51.50;;;;;;5112975;28;20036;-66
2022/01/15 05:39:28;;;;;;;0.32;0.20;;;15.60;51.50;;;;;;5111975;28;20039;-67
2022/01/15 05:41:54;;;;;;;0.60;0.10;;;15.60;51.50;;;;;;5112849;28;20040;-66
2022/01/15 05:44:20;;;;;;;0.55;0.10;;;15.60;51.50;;;;;;5112984;28;20063;-66
2022/01/15 05:46:46;;;;;;;0.40;0.10;;;15.60;51.60;;;;;;5112762;28;20471;-66
2022/01/15 05:49:13;;;;;;;1.35;0.10;;;15.60;51.60;;;;;;5111507;28;20040;-66
2022/01/15 05:51:39;;;;;;;0.28;0.10;;;15.60;51.60;;;;;;5112701;28;20077;-66
2022/01/15 05:54:10;;;;;;;0.30;0.10;;;15.60;51.60;;;;;;5111528;28;20027;-66
2022/01/15 05:56:39;;;;;;;0.45;0.15;;;15.60;51.60;;;;;;5112371;28;20107;-66
2022/01/15 05:59:07;;;;;;;0.40;0.10;;;15.60;51.60;;;;;;5111700;28;20421;-66
2022/01/15 06:01:33;;;;;;;0.77;0.17;;;15.60;51.60;;;;;;5111211;28;20301;-67
2022/01/15 06:03:59;;;;;;;0.08;0.00;;;15.50;51.60;;;;;;5111490;28;20031;-67
2022/01/15 06:06:25;;;;;;;1.05;0.10;;;15.50;51.60;;;;;;5111280;28;20031;-67
2022/01/15 06:08:50;;;;;;;0.47;0.10;;;15.50;51.60;;;;;;5111537;28;20054;-66
2022/01/15 06:11:17;;;;;;;0.30;0.10;;;15.50;51.60;;;;;;5111469;28;20074;-66
2022/01/15 06:13:45;;;;;;;0.70;0.10;;;15.50;51.60;;;;;;5112469;28;20467;-66
2022/01/15 06:16:11;;;;;;;0.30;0.10;;;15.50;51.70;;;;;;5111173;28;20032;-66
2022/01/15 06:18:36;;;;;;;0.47;0.10;;;15.50;51.70;;;;;;5111054;28;20031;-66
2022/01/15 06:21:05;;;;;;;0.38;0.10;;;15.50;51.70;;;;;;5111012;28;20070;-66
2022/01/15 06:23:31;;;;;;;0.30;0.10;;;15.40;51.70;;;;;;5112401;28;20084;-66
2022/01/15 06:25:56;;;;;;;0.20;0.10;;;15.50;51.70;;;;;;5111167;28;20404;-67
2022/01/15 06:28:22;;;;;;;0.40;0.10;;;15.40;51.60;;;;;;5112328;28;20031;-67
2022/01/15 06:30:48;;;;;;;0.30;0.10;;;15.40;51.60;;;;;;5112359;28;20451;-66
2022/01/15 06:33:14;;;;;;;0.22;0.10;;;15.40;51.70;;;;;;5112092;28;20042;-66
2022/01/15 06:35:40;;;;;;;0.30;0.10;;;15.40;51.60;;;;;;5111013;28;20043;-67
2022/01/15 06:38:06;;;;;;;0.40;0.10;;;15.40;51.60;;;;;;5110916;28;20463;-66
2022/01/15 06:40:32;;;;;;;0.20;0.10;;;15.40;51.70;;;;;;5112244;28;20038;-66
2022/01/15 06:43:00;;;;;;;0.20;0.10;;;15.40;51.60;;;;;;5112247;28;20028;-66
2022/01/15 06:45:27;;;;;;;0.28;0.10;;;15.40;51.60;;;;;;5112228;28;20114;-66
2022/01/15 06:47:53;;;;;;;0.20;0.10;;;15.40;51.70;;;;;;5110809;28;20036;-66
2022/01/15 06:50:18;;;;;;;0.13;0.03;;;15.40;51.60;;;;;;5110782;28;20047;-66
2022/01/15 06:52:44;;;;;;;0.32;0.10;;;15.40;51.70;;;;;;5110707;28;20043;-66
2022/01/15 06:55:10;;;;;;;0.20;0.05;;;15.40;51.70;;;;;;5112229;28;20035;-66
2022/01/15 06:57:36;;;;;;;0.20;0.05;;;15.40;51.70;;;;;;5110933;28;20126;-66
2022/01/15 07:00:04;;;;;;;0.30;0.10;;;15.40;51.70;;;;;;5112117;28;20114;-66
2022/01/15 07:02:33;;;;;;;0.20;0.10;;;15.30;51.70;;;;;;5110605;28;20056;-66
2022/01/15 07:04:58;;;;;;;0.25;0.10;;;15.40;51.70;;;;;;5110557;28;20034;-66
2022/01/15 07:07:24;;;;;;;0.57;0.10;;;15.30;51.70;;;;;;5112154;28;20039;-67
2022/01/15 07:09:50;;;;;;;0.32;0.10;;;15.30;51.70;;;;;;5114450;28;20040;-66
2022/01/15 07:12:15;;;;;;;0.30;0.10;;;15.30;51.70;;;;;;5115951;28;20062;-66
2022/01/15 07:14:41;;;;;;;0.20;0.10;;;15.30;51.70;;;;;;5115612;28;20074;-66
2022/01/15 07:17:07;;;;;;;0.10;0.10;;;15.30;51.70;;;;;;5114437;28;20073;-66
2022/01/15 07:19:35;;;;;;;0.22;0.10;;;15.30;51.70;;;;;;5114584;28;20031;-66
2022/01/15 07:22:01;;;;;;;0.30;0.10;;;15.30;51.70;;;;;;5115358;28;20055;-66
2022/01/15 07:24:26;;;;;;;0.28;0.10;;;15.30;51.70;;;;;;5114181;28;20386;-66
2022/01/15 07:26:52;;;;;;;0.40;0.20;;;15.30;51.70;;;;;;5115628;28;20063;-67
2022/01/15 07:29:18;;;;;;;0.20;0.10;;;15.30;51.70;;;;;;5115505;28;20031;-66
2022/01/15 07:31:46;;;;;;;0.47;0.10;;;15.30;51.70;;;;;;5115527;28;20032;-66
2022/01/15 07:34:12;;;;;;;1.15;0.20;;;15.30;51.70;;;;;;5114012;28;20162;-66
2022/01/15 07:36:38;;;;;;;0.30;0.10;;;15.20;51.60;;;;;;5114091;28;20114;-66
2022/01/15 07:39:05;;;;;;;0.20;0.10;;;15.20;51.70;;;;;;5114193;28;20043;-66
2022/01/15 07:41:31;;;;;;;0.40;0.20;;;15.20;51.70;;;;;;5115359;28;20378;-66
2022/01/15 07:43:57;;;;;;;0.10;0.10;;;15.20;51.70;;;;;;5114164;28;20516;-66
2022/01/15 07:46:23;;;;;;;0.57;0.15;;;15.20;51.70;;;;;;5113869;28;20059;-66
2022/01/15 07:48:49;;;;;;;0.65;0.28;;;15.20;51.70;;;;;;5115036;28;20035;-66
2022/01/15 07:51:15;;;;;;;0.30;0.10;;;15.20;51.60;;;;;;5113753;28;20481;-66
2022/01/15 07:53:41;;;;;;;0.40;0.17;;;15.20;51.60;;;;;;5115111;28;20046;-66
2022/01/15 07:56:06;;;;;;;0.52;0.20;;;15.20;51.60;;;;;;5114980;28;20063;-66
2022/01/15 07:58:32;;;;;;;0.55;0.28;;;15.20;51.60;;;;;;5113712;28;20070;-66
2022/01/15 08:00:57;;;;;;;0.30;0.20;;;15.20;51.70;;;;;;5113434;28;20126;-66
2022/01/15 08:03:23;;;;;;;0.70;0.30;;;15.20;51.60;;;;;;5114739;28;20034;-66
2022/01/15 08:05:49;;;;;;;0.50;0.15;;;15.10;51.50;;;;;;5114723;28;20047;-66
2022/01/15 08:08:15;;;;;;;0.38;0.20;;;15.10;51.60;;;;;;5113520;28;20115;-66
2022/01/15 08:10:42;;;;;;;0.80;0.10;;;15.10;51.60;;;;;;5114722;28;20114;-66
2022/01/15 08:13:08;;;;;;;0.80;0.30;;;15.10;51.60;;;;;;5114758;28;20097;-66
2022/01/15 08:15:34;;;;;;;0.50;0.20;;;15.10;51.60;;;;;;5113386;28;20043;-66
2022/01/15 08:18:00;;;;;;;0.40;0.20;;;15.10;51.60;;;;;;5113519;28;20028;-66
2022/01/15 08:20:25;;;;;;;1.23;0.20;;;15.10;51.60;;;;;;5112615;28;20047;-66
2022/01/15 08:22:51;;;;;;;0.47;0.20;;;15.10;51.60;;;;;;5112010;28;20438;-68
2022/01/15 08:25:18;;;;;;;4.60;0.50;;;15.10;51.60;;;;;;5111226;28;20039;-65
2022/01/15 08:27:45;;;;;;;1.67;0.40;;;15.00;51.90;;;;;;5111504;28;20051;-66
2022/01/15 08:30:12;;;;;;;2.80;0.30;;;15.00;52.20;;;;;;5112740;28;20104;-65
2022/01/15 08:32:37;;;;;;;1.55;0.40;;;15.00;52.70;;;;;;5111829;28;20682;-65
2022/01/15 08:35:06;;;;;;;0.93;0.30;;;15.00;53.30;;;;;;5113126;28;20110;-68
2022/01/15 08:37:32;;;;;;;1.02;0.40;;;15.00;53.40;;;;;;5112353;28;20035;-68
2022/01/15 08:39:57;;;;;;;0.63;0.30;;;15.00;53.50;;;;;;5107503;28;20035;-69
2022/01/15 08:42:23;;;;;;;0.82;0.60;;;15.00;53.50;;;;;;5111257;28;20088;-74
2022/01/15 08:44:51;;;;;;;2.30;0.50;;;15.00;53.40;;;;;;5110485;28;20543;-73
2022/01/15 08:47:16;;;;;;;1.73;0.43;;;15.00;53.40;;;;;;5110407;28;20467;-73
2022/01/15 08:49:42;;;;;;;0.70;0.25;;;15.00;53.50;;;;;;5110774;28;20035;-74
2022/01/15 08:52:08;;;;;;;0.77;0.30;;;15.00;53.60;;;;;;5110021;28;20100;-72
2022/01/15 08:54:34;;;;;;;3.13;0.30;;;15.00;53.50;;;;;;5111235;28;20035;-73
2022/01/15 08:56:59;;;;;;;3.78;0.50;;;15.00;53.80;;;;;;5110908;28;20387;-73
2022/01/15 08:59:34;;;;;;;3.92;0.80;;;15.00;53.80;;;;;;5111030;28;20507;-68
2022/01/15 09:02:00;;;;;;;4.72;0.50;;;15.00;53.90;;;;;;5110185;28;20059;-66
2022/01/15 09:04:27;;;;;;;0.90;0.40;;;15.00;54.00;;;;;;5111395;28;20048;-66
2022/01/15 09:07:00;;;;;;;1.67;0.40;;;15.10;53.90;;;;;;5111564;28;20065;-68
2022/01/15 09:09:25;;;;;;;0.93;0.28;;;15.20;53.60;;;;;;5112956;28;20402;-67
2022/01/15 09:11:51;;;;;;;1.27;0.40;;;15.40;53.30;;;;;;5111089;28;20051;-71
2022/01/15 09:14:17;;;;;;;1.17;0.40;;;15.50;53.00;;;;;;5111073;28;20423;-72
2022/01/15 09:16:43;;;;;;;2.67;0.30;;;15.70;53.30;;;;;;5093792;28;20131;-67
2022/01/15 09:19:09;;;;;;;1.13;0.30;;;15.90;52.20;;;;;;5112589;28;20118;-67
2022/01/15 09:21:35;;;;;;;0.73;0.28;;;16.20;51.90;;;;;;5110582;28;20055;-67
2022/01/15 09:24:01;;;;;;;3.13;0.40;;;16.50;51.60;;;;;;5110481;28;20039;-71
2022/01/15 09:26:47;;;;;;;1.20;0.50;;;16.80;51.20;;;;;;5111237;28;20386;-71
2022/01/15 09:32:01;;;;;;;0.63;0.30;;;17.30;50.10;;;;;;5111364;28;20045;-71
2022/01/15 09:34:27;;;;;;;0.50;0.20;;;17.50;49.60;;;;;;5111071;28;20040;-71
2022/01/15 09:36:53;;;;;;;2.20;0.30;;;17.70;49.20;;;;;;5110653;28;20127;-68
2022/01/15 09:39:20;;;;;;;0.68;0.20;;;18.00;48.80;;;;;;5111312;28;20111;-68
2022/01/15 09:41:48;;;;;;;0.93;0.20;;;18.10;48.40;;;;;;5111998;28;20159;-68
2022/01/15 09:44:15;;;;;;;1.88;0.30;;;18.30;48.10;;;;;;5110275;28;20031;-67
2022/01/15 09:46:45;;;;;;;0.70;0.20;;;18.40;47.90;;;;;;5110365;28;20062;-67
2022/01/15 09:49:14;;;;;;;0.50;0.30;;;18.60;47.70;;;;;;5110161;28;20387;-67
2022/01/15 09:51:39;;;;;;;0.40;0.10;;;18.70;47.40;;;;;;5110580;28;20028;-68
2022/01/15 09:54:08;;;;;;;0.85;0.20;;;18.80;47.20;;;;;;5112122;28;20376;-69
2022/01/15 09:56:34;;;;;;;0.73;0.30;;;19.00;47.00;;;;;;5111296;28;20081;-68
2022/01/15 09:59:02;;;;;;;0.80;0.22;;;19.10;46.70;;;;;;5110908;28;20035;-67
2022/01/15 10:01:29;;;;;;;0.68;0.20;;;19.20;46.40;;;;;;5111800;28;20039;-70
2022/01/15 10:03:56;;;;;;;0.63;0.20;;;19.30;46.30;;;;;;5110557;28;20054;-67
2022/01/15 10:06:22;;;;;;;0.30;0.15;;;19.40;46.20;;;;;;5109806;28;20051;-67
2022/01/15 10:09:06;;;;;;;0.47;0.17;;;19.50;46.10;;;;;;5111613;28;20047;-67
2022/01/15 10:14:39;;;;;;;0.50;0.20;;;19.60;46.00;;;;;;5125942;27;1884312;-67
2022/01/15 10:17:26;;;;;;;0.40;0.20;;;19.80;45.80;;;;;;5152600;27;20046;-67
2022/01/15 10:19:53;;;;;;;1.80;0.20;;;19.90;45.60;;;;;;5152759;27;20122;-66
2022/01/15 10:22:20;;;;;;;0.70;0.20;;;20.00;45.30;;;;;;5152378;27;20072;-68
2022/01/15 10:24:57;;;;;;;0.65;0.20;;;20.10;45.20;;;;;;5134695;27;20078;-67
2022/01/15 10:27:29;;;;;;;2.17;0.28;;;20.20;45.10;;;;;;5151547;27;20118;-67
2022/01/15 10:30:05;;;;;;;1.25;0.22;;;20.10;45.00;;;;;;5151727;27;20117;-66
2022/01/15 10:32:34;;;;;;;1.77;0.30;;;20.20;44.90;;;;;;5170104;27;20129;-67
2022/01/15 10:35:00;;;;;;;2.10;0.20;;;20.30;44.90;;;;;;5152164;27;20106;-66
2022/01/15 10:37:37;;;;;;;0.50;0.20;;;20.30;44.80;;;;;;5151693;27;20524;-67
2022/01/15 10:40:07;;;;;;;0.57;0.17;;;20.40;44.70;;;;;;5152558;27;20035;-67
2022/01/15 10:42:35;;;;;;;3.50;0.30;;;20.50;44.70;;;;;;5151995;27;20405;-66
2022/01/15 10:45:17;;;;;;;0.90;0.30;;;20.50;44.60;;;;;;5151980;27;20087;-66
2022/01/15 10:47:48;;;;;;;0.65;0.20;;;20.50;44.50;;;;;;5168617;27;20048;-67
2022/01/15 10:50:33;;;;;;;1.58;0.10;;;20.50;44.40;;;;;;5151438;27;20030;-69
2022/01/15 10:53:07;;;;;;;4.40;0.30;;;20.60;44.40;;;;;;5151063;27;20046;-66
2022/01/15 10:55:33;;;;;;;4.10;0.20;;;20.70;44.40;;;;;;5149546;27;20045;-67
2022/01/15 10:58:04;;;;;;;1.98;0.15;;;20.70;44.40;;;;;;5166364;27;20366;-67
2022/01/15 11:03:18;;;;;;;1.50;0.30;;;20.70;44.20;;;;;;5109091;27;20568;-71
2022/01/15 11:05:46;;;;;;;1.00;0.20;;;20.90;44.20;;;;;;5103420;28;20058;-69
2022/01/15 11:10:57;;;;;;;0.80;0.20;;;21.00;44.10;;;;;;5128917;27;20357;-67
2022/01/15 11:13:27;;;;;;;0.30;0.13;;;21.00;44.10;;;;;;5127316;28;20127;-67
2022/01/15 11:15:56;;;;;;;0.60;0.30;;;21.00;44.00;;;;;;5128207;28;20097;-65
2022/01/15 11:21:08;;;;;;;1.45;0.20;;;21.10;43.90;;;;;;5130300;27;20362;-66
2022/01/15 11:23:36;;;;;;;0.47;0.20;;;21.10;43.80;;;;;;5129041;28;20065;-65
2022/01/15 11:26:06;;;;;;;0.40;0.20;;;21.10;44.60;;;;;;5129021;28;20043;-69
2022/01/15 11:28:33;;;;;;;0.77;0.30;;;21.10;43.80;;;;;;5128903;28;20122;-66
2022/01/15 11:31:09;;;;;;;0.57;0.30;;;21.20;43.70;;;;;;5128645;28;20047;-66
2022/01/15 11:33:39;;;;;;;0.30;0.20;;;21.20;43.70;;;;;;5127699;28;20043;-66
2022/01/15 11:36:07;;;;;;;0.68;0.20;;;21.20;43.60;;;;;;5125617;28;20051;-66
2022/01/15 11:44:10;;;;;;;0.47;0.32;;;21.20;43.60;;;;;;5088960;28;20352;-67
2022/01/15 11:46:54;;;;;;;0.68;0.30;;;21.30;43.50;;;;;;5088248;28;20540;-66
2022/01/15 11:49:44;;;;;;;1.60;0.52;;;21.30;43.50;;;;;;5088029;28;20060;-64
2022/01/15 11:55:10;;;;;;;2.22;0.40;;;21.30;43.50;;;;;;5149826;27;20098;-66
2022/01/15 11:57:45;;;;;;;0.82;0.30;;;21.30;43.40;;;;;;5121359;28;20051;-67
2022/01/15 12:00:21;;;;;;;1.40;0.30;;;21.20;43.40;;;;;;5127968;28;20084;-68
2022/01/15 12:03:08;;;;;;;0.77;0.30;;;21.20;43.50;;;;;;5128299;28;20079;-66
2022/01/15 12:05:36;;;;;;;1.25;0.47;;;21.00;43.50;;;;;;5124146;28;20048;-66
2022/01/15 12:08:23;;;;;;;2.00;0.30;;;21.00;43.70;;;;;;5108091;28;20086;-68
2022/01/15 12:10:51;;;;;;;1.48;0.60;;;20.90;43.90;;;;;;5118577;28;20035;-67
2022/01/15 12:13:19;;;;;;;1.38;0.20;;;20.80;44.00;;;;;;5128342;28;20058;-68
2022/01/15 12:15:46;;;;;;;0.88;0.40;;;20.80;44.00;;;;;;5110498;28;20043;-68
2022/01/15 12:18:15;;;;;;;2.47;0.35;;;20.70;44.10;;;;;;5126457;28;20057;-71
2022/01/15 12:20:41;;;;;;;0.98;0.30;;;20.50;44.20;;;;;;5124592;28;20055;-65
2022/01/15 12:23:27;;;;;;;0.82;0.30;;;20.40;44.30;;;;;;5108400;28;20386;-66
2022/01/15 12:25:55;;;;;;;4.20;0.60;;;20.30;44.30;;;;;;5120754;28;20055;-67
2022/01/15 12:28:24;;;;;;;1.10;0.50;;;20.20;44.50;;;;;;5116710;27;20038;-67
2022/01/15 12:30:54;;;;;;;1.35;0.50;;;20.10;44.50;;;;;;5107921;28;20066;-66
2022/01/15 12:33:20;;;;;;;2.60;0.73;;;20.00;44.50;;;;;;5108703;28;20043;-65
2022/01/15 12:35:51;;;;;;;2.65;0.77;;;19.90;44.60;;;;;;5107710;28;20070;-66
2022/01/15 12:38:28;;;;;;;0.80;0.40;;;19.80;44.70;;;;;;5109067;28;20071;-65
2022/01/15 12:41:01;;;;;;;2.08;0.60;;;19.70;44.90;;;;;;5107547;28;20064;-65
2022/01/15 12:43:32;;;;;;;3.88;0.95;;;19.60;45.00;;;;;;5107636;28;20502;-65
2022/01/15 12:46:01;;;;;;;3.42;0.93;;;19.50;45.00;;;;;;5108963;28;20513;-66
2022/01/15 12:48:30;;;;;;;1.30;0.70;;;19.40;45.00;;;;;;5108758;28;20044;-65
2022/01/15 12:51:01;;;;;;;1.60;0.80;;;19.40;45.10;;;;;;5107790;28;20093;-65
2022/01/15 12:53:35;;;;;;;1.75;1.05;;;19.20;45.00;;;;;;5107148;28;20181;-65
2022/01/15 12:56:05;;;;;;;1.50;0.73;;;19.20;45.10;;;;;;5107664;28;20055;-66
2022/01/15 12:58:31;;;;;;;1.85;1.00;;;19.10;45.20;;;;;;5108983;28;20036;-65
2022/01/15 13:00:56;;;;;;;1.88;0.82;;;19.00;46.00;;;;;;5108580;28;20501;-66
2022/01/15 13:03:24;;;;;;;1.83;1.08;;;18.90;45.30;;;;;;5107526;28;20414;-65
2022/01/15 13:05:56;;;;;;;1.88;1.02;;;18.80;45.40;;;;;;5096591;28;20394;-66
2022/01/15 13:08:41;;;;;;;1.83;1.33;;;18.70;45.50;;;;;;5094943;28;20097;-66
2022/01/15 13:13:55;;;;;;;2.65;1.10;;;18.50;45.60;;;;;;5130244;27;20799;-65
2022/01/15 13:16:25;;;;;;;1.58;1.13;;;18.40;45.70;;;;;;5129007;28;20100;-65
2022/01/15 13:21:35;;;;;;;1.30;0.70;;;18.40;45.90;;;;;;5109731;27;20392;-65
2022/01/15 13:24:08;;;;;;;1.75;0.77;;;18.20;46.10;;;;;;5108436;28;20036;-65
2022/01/15 13:26:43;;;;;;;1.50;0.90;;;18.10;46.10;;;;;;5108743;28;20039;-66
2022/01/15 13:29:14;;;;;;;2.08;1.27;;;18.10;46.30;;;;;;5108275;28;20483;-66
2022/01/15 13:31:41;;;;;;;1.60;1.05;;;18.00;46.30;;;;;;5109835;28;20040;-65
2022/01/15 13:34:10;;;;;;;2.08;1.20;;;17.90;46.40;;;;;;5108572;28;20429;-65